sensor_id;sensor_type;location;lat;lon;timestamp;temperature;humidity
24146;DHT22;12308;50.948;4.706;2023-08-30T00:00:40;14.70;99.90
24146;DHT22;12308;50.948;4.706;2023-08-30T00:03:07;14.70;99.90
24146;DHT22;12308;50.948;4.706;2023-08-30T00:05:32;14.80;99.90
24146;DHT22;12308;50.948;4.706;2023-08-30T00:07:58;14.80;99.90
24146;DHT22;12308;50.948;4.706;2023-08-30T00:10:24;14.80;99.90
24146;DHT22;12308;50.948;4.706;2023-08-30T00:12:50;14.80;99.90
24146;DHT22;12308;50.948;4.706;2023-08-30T00:15:16;14.90;99.90
24146;DHT22;12308;50.948;4.706;2023-08-30T00:17:41;15.00;99.90
24146;DHT22;12308;50.948;4.706;2023-08-30T00:20:07;15.10;99.90
24146;DHT22;12308;50.948;4.706;2023-08-30T00:22:34;15.10;99.90
24146;DHT22;12308;50.948;4.706;2023-08-30T00:25:01;15.10;99.90
24146;DHT22;12308;50.948;4.706;2023-08-30T00:27:27;15.00;99.90
24146;DHT22;12308;50.948;4.706;2023-08-30T00:29:53;15.10;99.90
24146;DHT22;12308;50.948;4.706;2023-08-30T00:32:18;15.00;99.90
24146;DHT22;12308;50.948;4.706;2023-08-30T00:34:44;15.00;99.90
24146;DHT22;12308;50.948;4.706;2023-08-30T00:37:10;15.00;99.90
24146;DHT22;12308;50.948;4.706;2023-08-30T00:39:39;15.20;99.90
24146;DHT22;12308;50.948;4.706;2023-08-30T00:42:05;15.20;99.90
24146;DHT22;12308;50.948;4.706;2023-08-30T00:44:33;15.20;99.90
24146;DHT22;12308;50.948;4.706;2023-08-30T00:47:00;15.30;99.90
24146;DHT22;12308;50.948;4.706;2023-08-30T00:49:27;15.40;99.90
24146;DHT22;12308;50.948;4.706;2023-08-30T00:51:54;15.40;99.90
24146;DHT22;12308;50.948;4.706;2023-08-30T00:54:20;15.40;99.90
24146;DHT22;12308;50.948;4.706;2023-08-30T00:56:46;15.30;99.90
24146;DHT22;12308;50.948;4.706;2023-08-30T00:59:13;15.40;99.90
24146;DHT22;12308;50.948;4.706;2023-08-30T01:01:40;15.40;99.90
24146;DHT22;12308;50.948;4.706;2023-08-30T01:04:06;15.40;99.90
24146;DHT22;12308;50.948;4.706;2023-08-30T01:06:32;15.30;99.90
24146;DHT22;12308;50.948;4.706;2023-08-30T01:08:57;15.20;99.90
24146;DHT22;12308;50.948;4.706;2023-08-30T01:11:46;15.10;99.90
24146;DHT22;12308;50.948;4.706;2023-08-30T01:14:18;15.00;99.90
24146;DHT22;12308;50.948;4.706;2023-08-30T01:16:46;15.00;99.90
24146;DHT22;12308;50.948;4.706;2023-08-30T01:21:54;14.90;99.90
24146;DHT22;12308;50.948;4.706;2023-08-30T01:24:44;14.90;99.90
24146;DHT22;12308;50.948;4.706;2023-08-30T01:27:12;14.80;99.90
24146;DHT22;12308;50.948;4.706;2023-08-30T01:29:40;14.80;99.90
24146;DHT22;12308;50.948;4.706;2023-08-30T01:32:08;14.70;99.90
24146;DHT22;12308;50.948;4.706;2023-08-30T01:34:38;14.60;99.90
24146;DHT22;12308;50.948;4.706;2023-08-30T01:37:08;14.60;99.90
24146;DHT22;12308;50.948;4.706;2023-08-30T01:39:36;14.70;99.90
24146;DHT22;12308;50.948;4.706;2023-08-30T01:42:03;14.70;99.90
24146;DHT22;12308;50.948;4.706;2023-08-30T01:44:30;14.70;99.90
24146;DHT22;12308;50.948;4.706;2023-08-30T01:46:57;14.80;99.90
24146;DHT22;12308;50.948;4.706;2023-08-30T01:49:24;14.80;99.90
24146;DHT22;12308;50.948;4.706;2023-08-30T01:51:51;14.80;99.90
24146;DHT22;12308;50.948;4.706;2023-08-30T01:54:18;14.90;99.90
24146;DHT22;12308;50.948;4.706;2023-08-30T01:56:45;15.00;99.90
24146;DHT22;12308;50.948;4.706;2023-08-30T01:59:12;15.00;99.90
24146;DHT22;12308;50.948;4.706;2023-08-30T02:01:37;15.20;99.90
24146;DHT22;12308;50.948;4.706;2023-08-30T02:04:03;15.20;99.90
24146;DHT22;12308;50.948;4.706;2023-08-30T02:09:13;15.10;99.90
24146;DHT22;12308;50.948;4.706;2023-08-30T02:11:44;15.10;99.90
24146;DHT22;12308;50.948;4.706;2023-08-30T02:14:10;15.10;99.90
24146;DHT22;12308;50.948;4.706;2023-08-30T02:16:38;15.20;99.90
24146;DHT22;12308;50.948;4.706;2023-08-30T02:19:06;15.10;99.90
24146;DHT22;12308;50.948;4.706;2023-08-30T02:21:33;15.20;99.90
24146;DHT22;12308;50.948;4.706;2023-08-30T02:23:58;15.20;99.90
24146;DHT22;12308;50.948;4.706;2023-08-30T02:26:24;15.20;99.90
24146;DHT22;12308;50.948;4.706;2023-08-30T02:28:50;15.30;99.90
24146;DHT22;12308;50.948;4.706;2023-08-30T02:31:15;15.30;99.90
24146;DHT22;12308;50.948;4.706;2023-08-30T02:33:41;15.40;99.90
24146;DHT22;12308;50.948;4.706;2023-08-30T02:36:07;15.40;99.90
24146;DHT22;12308;50.948;4.706;2023-08-30T02:38:33;15.50;99.90
24146;DHT22;12308;50.948;4.706;2023-08-30T02:40:59;15.50;99.90
24146;DHT22;12308;50.948;4.706;2023-08-30T02:43:24;15.50;99.90
24146;DHT22;12308;50.948;4.706;2023-08-30T02:45:50;15.50;99.90
24146;DHT22;12308;50.948;4.706;2023-08-30T02:48:17;15.50;99.90
24146;DHT22;12308;50.948;4.706;2023-08-30T02:50:44;15.50;99.90
24146;DHT22;12308;50.948;4.706;2023-08-30T02:53:10;15.40;99.90
24146;DHT22;12308;50.948;4.706;2023-08-30T02:55:35;15.50;99.90
24146;DHT22;12308;50.948;4.706;2023-08-30T02:58:01;15.40;99.90
24146;DHT22;12308;50.948;4.706;2023-08-30T03:00:27;15.50;99.90
24146;DHT22;12308;50.948;4.706;2023-08-30T03:02:53;15.60;99.90
24146;DHT22;12308;50.948;4.706;2023-08-30T03:05:19;15.60;99.90
24146;DHT22;12308;50.948;4.706;2023-08-30T03:07:44;15.70;99.90
24146;DHT22;12308;50.948;4.706;2023-08-30T03:10:11;15.70;99.90
24146;DHT22;12308;50.948;4.706;2023-08-30T03:12:37;15.60;99.90
24146;DHT22;12308;50.948;4.706;2023-08-30T03:15:04;15.70;99.90
24146;DHT22;12308;50.948;4.706;2023-08-30T03:17:30;15.70;99.90
24146;DHT22;12308;50.948;4.706;2023-08-30T03:19:56;15.80;99.90
24146;DHT22;12308;50.948;4.706;2023-08-30T03:22:22;15.60;99.90
24146;DHT22;12308;50.948;4.706;2023-08-30T03:24:48;15.70;99.90
24146;DHT22;12308;50.948;4.706;2023-08-30T03:27:15;15.60;99.90
24146;DHT22;12308;50.948;4.706;2023-08-30T03:29:41;15.80;99.90
24146;DHT22;12308;50.948;4.706;2023-08-30T03:32:07;15.70;99.90
24146;DHT22;12308;50.948;4.706;2023-08-30T03:34:33;15.60;99.90
24146;DHT22;12308;50.948;4.706;2023-08-30T03:36:58;15.60;99.90
24146;DHT22;12308;50.948;4.706;2023-08-30T03:39:24;15.60;99.90
24146;DHT22;12308;50.948;4.706;2023-08-30T03:41:50;15.60;99.90
24146;DHT22;12308;50.948;4.706;2023-08-30T03:44:16;15.60;99.90
24146;DHT22;12308;50.948;4.706;2023-08-30T03:46:41;15.60;99.90
24146;DHT22;12308;50.948;4.706;2023-08-30T03:49:07;15.60;99.90
24146;DHT22;12308;50.948;4.706;2023-08-30T03:51:33;15.60;99.90
24146;DHT22;12308;50.948;4.706;2023-08-30T03:53:59;15.50;99.90
24146;DHT22;12308;50.948;4.706;2023-08-30T03:56:25;15.50;99.90
24146;DHT22;12308;50.948;4.706;2023-08-30T03:58:51;15.40;99.90
24146;DHT22;12308;50.948;4.706;2023-08-30T04:01:16;15.50;99.90
24146;DHT22;12308;50.948;4.706;2023-08-30T04:03:42;15.50;99.90
24146;DHT22;12308;50.948;4.706;2023-08-30T04:06:08;15.50;99.90
24146;DHT22;12308;50.948;4.706;2023-08-30T04:08:33;15.70;99.90
24146;DHT22;12308;50.948;4.706;2023-08-30T04:10:59;15.80;99.90
24146;DHT22;12308;50.948;4.706;2023-08-30T04:13:25;15.90;99.90
24146;DHT22;12308;50.948;4.706;2023-08-30T04:15:51;15.70;99.90
24146;DHT22;12308;50.948;4.706;2023-08-30T04:18:17;15.50;99.90
24146;DHT22;12308;50.948;4.706;2023-08-30T04:20:47;15.50;99.90
24146;DHT22;12308;50.948;4.706;2023-08-30T04:23:13;15.40;99.90
24146;DHT22;12308;50.948;4.706;2023-08-30T04:25:39;15.40;99.90
24146;DHT22;12308;50.948;4.706;2023-08-30T04:28:05;15.50;99.90
24146;DHT22;12308;50.948;4.706;2023-08-30T04:30:30;15.50;99.90
24146;DHT22;12308;50.948;4.706;2023-08-30T04:32:56;15.50;99.90
24146;DHT22;12308;50.948;4.706;2023-08-30T04:35:22;15.60;99.90
24146;DHT22;12308;50.948;4.706;2023-08-30T04:37:48;15.60;99.90
24146;DHT22;12308;50.948;4.706;2023-08-30T04:40:16;15.60;99.90
24146;DHT22;12308;50.948;4.706;2023-08-30T04:42:42;15.60;99.90
24146;DHT22;12308;50.948;4.706;2023-08-30T04:45:09;15.60;99.90
24146;DHT22;12308;50.948;4.706;2023-08-30T04:47:35;15.60;99.90
24146;DHT22;12308;50.948;4.706;2023-08-30T04:50:01;15.50;99.90
24146;DHT22;12308;50.948;4.706;2023-08-30T04:52:27;15.50;99.90
24146;DHT22;12308;50.948;4.706;2023-08-30T04:54:53;15.50;99.90
24146;DHT22;12308;50.948;4.706;2023-08-30T04:57:18;15.60;99.90
24146;DHT22;12308;50.948;4.706;2023-08-30T04:59:45;15.80;99.90
24146;DHT22;12308;50.948;4.706;2023-08-30T05:02:11;15.80;99.90
24146;DHT22;12308;50.948;4.706;2023-08-30T05:04:37;15.80;99.90
24146;DHT22;12308;50.948;4.706;2023-08-30T05:07:03;15.70;99.90
24146;DHT22;12308;50.948;4.706;2023-08-30T05:09:32;15.70;99.90
24146;DHT22;12308;50.948;4.706;2023-08-30T05:12:00;15.70;99.90
24146;DHT22;12308;50.948;4.706;2023-08-30T05:14:25;15.80;99.90
24146;DHT22;12308;50.948;4.706;2023-08-30T05:16:51;15.80;99.90
24146;DHT22;12308;50.948;4.706;2023-08-30T05:19:17;15.80;99.90
24146;DHT22;12308;50.948;4.706;2023-08-30T05:21:43;16.00;99.90
24146;DHT22;12308;50.948;4.706;2023-08-30T05:24:09;16.00;99.90
24146;DHT22;12308;50.948;4.706;2023-08-30T05:26:36;15.90;99.90
24146;DHT22;12308;50.948;4.706;2023-08-30T05:29:02;15.80;99.90
24146;DHT22;12308;50.948;4.706;2023-08-30T05:31:27;15.80;99.90
24146;DHT22;12308;50.948;4.706;2023-08-30T05:33:53;16.00;99.90
24146;DHT22;12308;50.948;4.706;2023-08-30T05:36:19;15.90;99.90
24146;DHT22;12308;50.948;4.706;2023-08-30T05:38:44;15.90;99.90
24146;DHT22;12308;50.948;4.706;2023-08-30T05:41:10;15.90;99.90
24146;DHT22;12308;50.948;4.706;2023-08-30T05:43:36;16.00;99.90
24146;DHT22;12308;50.948;4.706;2023-08-30T05:46:02;16.10;99.90
24146;DHT22;12308;50.948;4.706;2023-08-30T05:48:32;16.00;99.90
24146;DHT22;12308;50.948;4.706;2023-08-30T05:50:58;15.90;99.90
24146;DHT22;12308;50.948;4.706;2023-08-30T05:53:23;16.00;99.90
24146;DHT22;12308;50.948;4.706;2023-08-30T05:55:49;16.00;99.90
24146;DHT22;12308;50.948;4.706;2023-08-30T05:58:15;15.90;99.90
24146;DHT22;12308;50.948;4.706;2023-08-30T06:00:41;15.90;99.90
24146;DHT22;12308;50.948;4.706;2023-08-30T06:03:07;15.80;99.90
24146;DHT22;12308;50.948;4.706;2023-08-30T06:05:33;15.80;99.90
24146;DHT22;12308;50.948;4.706;2023-08-30T06:07:59;15.70;99.90
24146;DHT22;12308;50.948;4.706;2023-08-30T06:10:25;15.80;99.90
24146;DHT22;12308;50.948;4.706;2023-08-30T06:12:51;15.80;99.90
24146;DHT22;12308;50.948;4.706;2023-08-30T06:15:16;15.90;99.90
24146;DHT22;12308;50.948;4.706;2023-08-30T06:17:42;15.90;99.90
24146;DHT22;12308;50.948;4.706;2023-08-30T06:20:09;15.90;99.90
24146;DHT22;12308;50.948;4.706;2023-08-30T06:22:35;15.80;99.90
24146;DHT22;12308;50.948;4.706;2023-08-30T06:25:00;15.80;99.90
24146;DHT22;12308;50.948;4.706;2023-08-30T06:27:26;15.70;99.90
24146;DHT22;12308;50.948;4.706;2023-08-30T06:29:52;15.80;99.90
24146;DHT22;12308;50.948;4.706;2023-08-30T06:32:18;15.80;99.90
24146;DHT22;12308;50.948;4.706;2023-08-30T06:34:44;15.80;99.90
24146;DHT22;12308;50.948;4.706;2023-08-30T06:37:09;15.80;99.90
24146;DHT22;12308;50.948;4.706;2023-08-30T06:39:35;15.80;99.90
24146;DHT22;12308;50.948;4.706;2023-08-30T06:42:03;15.80;99.90
24146;DHT22;12308;50.948;4.706;2023-08-30T06:44:28;15.90;99.90
24146;DHT22;12308;50.948;4.706;2023-08-30T06:46:56;15.90;99.90
24146;DHT22;12308;50.948;4.706;2023-08-30T06:49:22;16.00;99.90
24146;DHT22;12308;50.948;4.706;2023-08-30T06:51:48;16.10;99.90
24146;DHT22;12308;50.948;4.706;2023-08-30T06:54:13;16.20;99.90
24146;DHT22;12308;50.948;4.706;2023-08-30T06:56:39;16.30;99.90
24146;DHT22;12308;50.948;4.706;2023-08-30T06:59:05;16.40;99.90
24146;DHT22;12308;50.948;4.706;2023-08-30T07:01:31;16.20;99.90
24146;DHT22;12308;50.948;4.706;2023-08-30T07:03:57;16.10;99.90
24146;DHT22;12308;50.948;4.706;2023-08-30T07:06:22;15.90;99.90
24146;DHT22;12308;50.948;4.706;2023-08-30T07:08:48;15.80;99.90
24146;DHT22;12308;50.948;4.706;2023-08-30T07:11:14;15.70;99.90
24146;DHT22;12308;50.948;4.706;2023-08-30T07:13:40;15.60;99.90
24146;DHT22;12308;50.948;4.706;2023-08-30T07:16:05;15.60;99.90
24146;DHT22;12308;50.948;4.706;2023-08-30T07:18:31;15.60;99.90
24146;DHT22;12308;50.948;4.706;2023-08-30T07:20:57;15.60;99.90
24146;DHT22;12308;50.948;4.706;2023-08-30T07:23:22;15.80;99.90
24146;DHT22;12308;50.948;4.706;2023-08-30T07:25:48;16.00;99.90
24146;DHT22;12308;50.948;4.706;2023-08-30T07:28:14;15.90;99.90
24146;DHT22;12308;50.948;4.706;2023-08-30T07:30:39;15.80;99.90
24146;DHT22;12308;50.948;4.706;2023-08-30T07:33:05;15.90;99.90
24146;DHT22;12308;50.948;4.706;2023-08-30T07:35:31;15.80;99.90
24146;DHT22;12308;50.948;4.706;2023-08-30T07:37:58;15.80;99.90
24146;DHT22;12308;50.948;4.706;2023-08-30T07:40:23;15.60;99.90
24146;DHT22;12308;50.948;4.706;2023-08-30T07:42:52;15.80;99.90
24146;DHT22;12308;50.948;4.706;2023-08-30T07:45:18;15.90;99.90
24146;DHT22;12308;50.948;4.706;2023-08-30T07:47:43;16.00;99.90
24146;DHT22;12308;50.948;4.706;2023-08-30T07:50:09;15.90;99.90
24146;DHT22;12308;50.948;4.706;2023-08-30T07:52:35;15.90;99.90
24146;DHT22;12308;50.948;4.706;2023-08-30T07:55:01;15.80;99.90
24146;DHT22;12308;50.948;4.706;2023-08-30T07:57:27;15.90;99.90
24146;DHT22;12308;50.948;4.706;2023-08-30T07:59:53;15.70;99.90
24146;DHT22;12308;50.948;4.706;2023-08-30T08:02:18;15.90;99.90
24146;DHT22;12308;50.948;4.706;2023-08-30T08:04:44;16.00;99.90
24146;DHT22;12308;50.948;4.706;2023-08-30T08:07:10;16.00;99.90
24146;DHT22;12308;50.948;4.706;2023-08-30T08:09:35;15.90;99.90
24146;DHT22;12308;50.948;4.706;2023-08-30T08:12:03;16.10;99.90
24146;DHT22;12308;50.948;4.706;2023-08-30T08:14:29;16.20;99.90
24146;DHT22;12308;50.948;4.706;2023-08-30T08:16:54;16.10;99.90
24146;DHT22;12308;50.948;4.706;2023-08-30T08:19:20;16.30;99.90
24146;DHT22;12308;50.948;4.706;2023-08-30T08:21:47;16.30;99.90
24146;DHT22;12308;50.948;4.706;2023-08-30T08:24:13;16.30;99.90
24146;DHT22;12308;50.948;4.706;2023-08-30T08:26:39;16.40;99.90
24146;DHT22;12308;50.948;4.706;2023-08-30T08:29:04;16.40;99.90
24146;DHT22;12308;50.948;4.706;2023-08-30T08:31:30;16.50;99.90
24146;DHT22;12308;50.948;4.706;2023-08-30T08:34:12;16.50;99.90
24146;DHT22;12308;50.948;4.706;2023-08-30T08:36:39;16.50;99.90
24146;DHT22;12308;50.948;4.706;2023-08-30T08:39:06;16.60;99.90
24146;DHT22;12308;50.948;4.706;2023-08-30T08:41:38;16.80;99.90
24146;DHT22;12308;50.948;4.706;2023-08-30T08:44:05;16.80;99.90
24146;DHT22;12308;50.948;4.706;2023-08-30T08:46:32;16.90;99.90
24146;DHT22;12308;50.948;4.706;2023-08-30T08:49:03;17.00;99.90
24146;DHT22;12308;50.948;4.706;2023-08-30T08:51:30;17.10;99.90
24146;DHT22;12308;50.948;4.706;2023-08-30T08:54:03;17.10;99.90
24146;DHT22;12308;50.948;4.706;2023-08-30T08:56:30;17.00;99.90
24146;DHT22;12308;50.948;4.706;2023-08-30T08:58:57;16.90;99.90
24146;DHT22;12308;50.948;4.706;2023-08-30T09:01:24;17.00;99.90
24146;DHT22;12308;50.948;4.706;2023-08-30T09:03:50;17.20;99.90
24146;DHT22;12308;50.948;4.706;2023-08-30T09:06:17;17.40;99.90
24146;DHT22;12308;50.948;4.706;2023-08-30T09:08:43;17.30;99.90
24146;DHT22;12308;50.948;4.706;2023-08-30T09:11:08;17.50;99.90
24146;DHT22;12308;50.948;4.706;2023-08-30T09:13:34;17.70;99.90
24146;DHT22;12308;50.948;4.706;2023-08-30T09:16:00;17.60;99.90
24146;DHT22;12308;50.948;4.706;2023-08-30T09:18:25;17.80;99.90
24146;DHT22;12308;50.948;4.706;2023-08-30T09:21:06;17.90;99.90
24146;DHT22;12308;50.948;4.706;2023-08-30T09:23:32;18.00;99.90
24146;DHT22;12308;50.948;4.706;2023-08-30T09:26:00;18.20;99.90
24146;DHT22;12308;50.948;4.706;2023-08-30T09:28:26;18.50;99.90
24146;DHT22;12308;50.948;4.706;2023-08-30T09:30:52;18.50;99.90
24146;DHT22;12308;50.948;4.706;2023-08-30T09:33:31;18.70;99.90
24146;DHT22;12308;50.948;4.706;2023-08-30T09:35:58;18.80;99.90
24146;DHT22;12308;50.948;4.706;2023-08-30T09:38:24;19.00;99.90
24146;DHT22;12308;50.948;4.706;2023-08-30T09:40:51;19.00;99.90
24146;DHT22;12308;50.948;4.706;2023-08-30T09:43:20;19.10;99.90
24146;DHT22;12308;50.948;4.706;2023-08-30T09:45:50;19.20;99.90
24146;DHT22;12308;50.948;4.706;2023-08-30T09:48:20;19.30;99.90
24146;DHT22;12308;50.948;4.706;2023-08-30T09:50:47;19.50;99.90
24146;DHT22;12308;50.948;4.706;2023-08-30T09:53:17;19.20;99.90
24146;DHT22;12308;50.948;4.706;2023-08-30T09:55:45;19.00;99.90
24146;DHT22;12308;50.948;4.706;2023-08-30T09:58:12;19.10;99.90
24146;DHT22;12308;50.948;4.706;2023-08-30T10:00:37;19.00;99.90
24146;DHT22;12308;50.948;4.706;2023-08-30T10:03:04;18.90;99.90
24146;DHT22;12308;50.948;4.706;2023-08-30T10:05:31;18.60;99.90
24146;DHT22;12308;50.948;4.706;2023-08-30T10:07:58;18.50;99.90
24146;DHT22;12308;50.948;4.706;2023-08-30T10:10:25;18.40;99.90
24146;DHT22;12308;50.948;4.706;2023-08-30T10:12:51;18.50;99.90
24146;DHT22;12308;50.948;4.706;2023-08-30T10:15:20;18.70;99.90
24146;DHT22;12308;50.948;4.706;2023-08-30T10:17:47;18.70;99.90
24146;DHT22;12308;50.948;4.706;2023-08-30T10:20:14;18.60;99.90
24146;DHT22;12308;50.948;4.706;2023-08-30T10:22:41;18.50;99.90
24146;DHT22;12308;50.948;4.706;2023-08-30T10:25:12;18.30;99.90
24146;DHT22;12308;50.948;4.706;2023-08-30T10:27:45;18.50;99.90
24146;DHT22;12308;50.948;4.706;2023-08-30T10:30:12;18.30;99.90
24146;DHT22;12308;50.948;4.706;2023-08-30T10:32:43;18.30;99.90
24146;DHT22;12308;50.948;4.706;2023-08-30T10:35:13;18.30;99.90
24146;DHT22;12308;50.948;4.706;2023-08-30T10:37:40;18.30;99.90
24146;DHT22;12308;50.948;4.706;2023-08-30T10:40:06;18.50;99.90
24146;DHT22;12308;50.948;4.706;2023-08-30T10:42:32;18.70;99.90
24146;DHT22;12308;50.948;4.706;2023-08-30T10:45:00;18.80;99.90
24146;DHT22;12308;50.948;4.706;2023-08-30T10:47:30;18.80;99.90
24146;DHT22;12308;50.948;4.706;2023-08-30T10:49:57;18.50;99.90
24146;DHT22;12308;50.948;4.706;2023-08-30T10:52:25;18.90;99.90
24146;DHT22;12308;50.948;4.706;2023-08-30T10:54:51;19.30;99.90
24146;DHT22;12308;50.948;4.706;2023-08-30T10:57:26;19.20;99.90
24146;DHT22;12308;50.948;4.706;2023-08-30T11:00:09;19.40;99.90
24146;DHT22;12308;50.948;4.706;2023-08-30T11:02:36;19.50;99.90
24146;DHT22;12308;50.948;4.706;2023-08-30T11:05:04;19.60;99.90
24146;DHT22;12308;50.948;4.706;2023-08-30T11:07:31;19.80;99.90
24146;DHT22;12308;50.948;4.706;2023-08-30T11:09:57;20.00;99.90
24146;DHT22;12308;50.948;4.706;2023-08-30T11:12:25;20.20;99.90
24146;DHT22;12308;50.948;4.706;2023-08-30T11:14:54;20.30;99.90
24146;DHT22;12308;50.948;4.706;2023-08-30T11:17:20;20.30;99.90
24146;DHT22;12308;50.948;4.706;2023-08-30T11:19:46;20.00;99.90
24146;DHT22;12308;50.948;4.706;2023-08-30T11:22:15;19.90;99.90
24146;DHT22;12308;50.948;4.706;2023-08-30T11:24:42;19.80;99.90
24146;DHT22;12308;50.948;4.706;2023-08-30T11:27:09;19.80;99.90
24146;DHT22;12308;50.948;4.706;2023-08-30T11:29:35;19.80;99.90
24146;DHT22;12308;50.948;4.706;2023-08-30T11:32:01;20.00;99.90
24146;DHT22;12308;50.948;4.706;2023-08-30T11:34:26;20.30;99.90
24146;DHT22;12308;50.948;4.706;2023-08-30T11:36:52;20.60;99.90
24146;DHT22;12308;50.948;4.706;2023-08-30T11:39:19;20.80;99.90
24146;DHT22;12308;50.948;4.706;2023-08-30T11:41:46;20.80;99.90
24146;DHT22;12308;50.948;4.706;2023-08-30T11:44:12;21.30;99.90
24146;DHT22;12308;50.948;4.706;2023-08-30T11:46:38;21.50;99.90
24146;DHT22;12308;50.948;4.706;2023-08-30T11:49:04;21.60;99.90
24146;DHT22;12308;50.948;4.706;2023-08-30T11:51:30;21.50;99.90
24146;DHT22;12308;50.948;4.706;2023-08-30T11:53:56;20.90;99.90
24146;DHT22;12308;50.948;4.706;2023-08-30T11:56:23;20.70;99.90
24146;DHT22;12308;50.948;4.706;2023-08-30T11:58:49;20.30;99.90
24146;DHT22;12308;50.948;4.706;2023-08-30T12:01:18;20.20;99.90
24146;DHT22;12308;50.948;4.706;2023-08-30T12:03:45;19.80;99.90
24146;DHT22;12308;50.948;4.706;2023-08-30T12:06:16;19.40;99.90
24146;DHT22;12308;50.948;4.706;2023-08-30T12:08:42;19.20;99.90
24146;DHT22;12308;50.948;4.706;2023-08-30T12:11:20;19.40;99.90
24146;DHT22;12308;50.948;4.706;2023-08-30T12:13:46;19.70;99.90
24146;DHT22;12308;50.948;4.706;2023-08-30T12:16:17;19.80;99.90
24146;DHT22;12308;50.948;4.706;2023-08-30T12:18:43;20.10;99.90
24146;DHT22;12308;50.948;4.706;2023-08-30T12:21:09;20.20;99.90
24146;DHT22;12308;50.948;4.706;2023-08-30T12:23:35;20.40;99.90
24146;DHT22;12308;50.948;4.706;2023-08-30T12:26:11;20.40;99.90
24146;DHT22;12308;50.948;4.706;2023-08-30T12:28:38;20.30;99.90
24146;DHT22;12308;50.948;4.706;2023-08-30T12:31:04;20.30;99.90
24146;DHT22;12308;50.948;4.706;2023-08-30T12:33:31;20.20;99.90
24146;DHT22;12308;50.948;4.706;2023-08-30T12:35:58;20.00;99.90
24146;DHT22;12308;50.948;4.706;2023-08-30T12:38:24;19.90;99.90
24146;DHT22;12308;50.948;4.706;2023-08-30T12:40:52;20.10;99.90
24146;DHT22;12308;50.948;4.706;2023-08-30T12:43:18;20.20;99.90
24146;DHT22;12308;50.948;4.706;2023-08-30T12:45:45;20.30;99.90
24146;DHT22;12308;50.948;4.706;2023-08-30T12:48:12;20.20;99.90
24146;DHT22;12308;50.948;4.706;2023-08-30T12:50:39;20.10;99.90
24146;DHT22;12308;50.948;4.706;2023-08-30T12:53:06;20.00;99.90
24146;DHT22;12308;50.948;4.706;2023-08-30T12:55:32;19.90;99.90
24146;DHT22;12308;50.948;4.706;2023-08-30T12:57:58;19.80;99.90
24146;DHT22;12308;50.948;4.706;2023-08-30T13:00:24;19.90;99.90
24146;DHT22;12308;50.948;4.706;2023-08-30T13:02:50;20.00;99.90
24146;DHT22;12308;50.948;4.706;2023-08-30T13:05:16;20.20;99.90
24146;DHT22;12308;50.948;4.706;2023-08-30T13:07:42;20.00;99.90
24146;DHT22;12308;50.948;4.706;2023-08-30T13:10:08;20.00;99.90
24146;DHT22;12308;50.948;4.706;2023-08-30T13:12:34;20.00;99.90
24146;DHT22;12308;50.948;4.706;2023-08-30T13:15:00;20.00;99.90
24146;DHT22;12308;50.948;4.706;2023-08-30T13:17:26;20.00;99.90
24146;DHT22;12308;50.948;4.706;2023-08-30T13:19:52;20.30;99.90
24146;DHT22;12308;50.948;4.706;2023-08-30T13:22:18;20.50;99.90
24146;DHT22;12308;50.948;4.706;2023-08-30T13:24:46;20.70;99.90
24146;DHT22;12308;50.948;4.706;2023-08-30T13:27:13;20.90;99.90
24146;DHT22;12308;50.948;4.706;2023-08-30T13:29:38;20.90;99.90
24146;DHT22;12308;50.948;4.706;2023-08-30T13:32:04;20.60;99.90
24146;DHT22;12308;50.948;4.706;2023-08-30T13:34:30;20.20;99.90
24146;DHT22;12308;50.948;4.706;2023-08-30T13:36:56;20.00;99.90
24146;DHT22;12308;50.948;4.706;2023-08-30T13:39:22;20.00;99.90
24146;DHT22;12308;50.948;4.706;2023-08-30T13:41:48;20.00;99.90
24146;DHT22;12308;50.948;4.706;2023-08-30T13:44:14;19.90;99.90
24146;DHT22;12308;50.948;4.706;2023-08-30T13:46:40;19.90;99.90
24146;DHT22;12308;50.948;4.706;2023-08-30T13:49:06;19.80;99.90
24146;DHT22;12308;50.948;4.706;2023-08-30T13:51:32;19.80;99.90
24146;DHT22;12308;50.948;4.706;2023-08-30T13:53:58;19.90;99.90
24146;DHT22;12308;50.948;4.706;2023-08-30T13:56:23;19.70;99.90
24146;DHT22;12308;50.948;4.706;2023-08-30T13:58:50;19.80;99.90
24146;DHT22;12308;50.948;4.706;2023-08-30T14:01:16;20.20;99.90
24146;DHT22;12308;50.948;4.706;2023-08-30T14:03:45;20.30;99.90
24146;DHT22;12308;50.948;4.706;2023-08-30T14:06:10;20.50;99.90
24146;DHT22;12308;50.948;4.706;2023-08-30T14:08:37;20.60;99.90
24146;DHT22;12308;50.948;4.706;2023-08-30T14:11:02;20.80;99.90
24146;DHT22;12308;50.948;4.706;2023-08-30T14:13:29;20.80;99.90
24146;DHT22;12308;50.948;4.706;2023-08-30T14:15:59;20.80;99.90
24146;DHT22;12308;50.948;4.706;2023-08-30T14:18:26;20.80;99.90
24146;DHT22;12308;50.948;4.706;2023-08-30T14:20:55;20.90;99.90
24146;DHT22;12308;50.948;4.706;2023-08-30T14:23:26;20.70;99.90
24146;DHT22;12308;50.948;4.706;2023-08-30T14:25:59;20.60;99.90
24146;DHT22;12308;50.948;4.706;2023-08-30T14:28:25;20.20;99.90
24146;DHT22;12308;50.948;4.706;2023-08-30T14:30:51;19.90;99.90
24146;DHT22;12308;50.948;4.706;2023-08-30T14:33:17;19.70;99.90
24146;DHT22;12308;50.948;4.706;2023-08-30T14:35:43;19.40;99.90
24146;DHT22;12308;50.948;4.706;2023-08-30T14:38:09;19.40;99.90
24146;DHT22;12308;50.948;4.706;2023-08-30T14:40:35;19.10;99.90
24146;DHT22;12308;50.948;4.706;2023-08-30T14:43:03;19.30;99.90
24146;DHT22;12308;50.948;4.706;2023-08-30T14:45:29;19.60;99.90
24146;DHT22;12308;50.948;4.706;2023-08-30T14:47:55;19.90;99.90
24146;DHT22;12308;50.948;4.706;2023-08-30T14:50:20;19.90;99.90
24146;DHT22;12308;50.948;4.706;2023-08-30T14:52:46;19.90;99.90
24146;DHT22;12308;50.948;4.706;2023-08-30T14:55:12;20.00;99.90
24146;DHT22;12308;50.948;4.706;2023-08-30T14:57:37;19.90;99.90
24146;DHT22;12308;50.948;4.706;2023-08-30T15:00:04;19.90;99.90
24146;DHT22;12308;50.948;4.706;2023-08-30T15:02:31;20.00;99.90
24146;DHT22;12308;50.948;4.706;2023-08-30T15:04:57;20.00;99.90
24146;DHT22;12308;50.948;4.706;2023-08-30T15:07:23;19.80;99.90
24146;DHT22;12308;50.948;4.706;2023-08-30T15:09:48;19.60;99.90
24146;DHT22;12308;50.948;4.706;2023-08-30T15:12:15;19.50;99.90
24146;DHT22;12308;50.948;4.706;2023-08-30T15:14:41;19.60;99.90
24146;DHT22;12308;50.948;4.706;2023-08-30T15:17:09;19.80;99.90
24146;DHT22;12308;50.948;4.706;2023-08-30T15:19:35;20.10;99.90
24146;DHT22;12308;50.948;4.706;2023-08-30T15:22:01;20.20;99.90
24146;DHT22;12308;50.948;4.706;2023-08-30T15:24:27;20.10;99.90
24146;DHT22;12308;50.948;4.706;2023-08-30T15:26:53;20.00;99.90
24146;DHT22;12308;50.948;4.706;2023-08-30T15:29:19;19.70;99.90
24146;DHT22;12308;50.948;4.706;2023-08-30T15:31:45;19.80;99.90